Time;durP1;ratioP1;P1;durP2;ratioP2;P2;SDS_P1;SDS_P2;PMS_P1;PMS_P2;Temp;Humidity;BMP_temperature;BMP_pressure;BME280_temperature;BME280_humidity;BME280_pressure;Samples;Min_cycle;Max_cycle;Signal;HPM_P1;HPM_P2
2022/11/24 00:01:21;;;;;;;13.65;5.20;;;6.70;99.90;;;;;;5097708;28;20036;-93
2022/11/24 00:03:56;;;;;;;15.05;5.50;;;6.60;99.90;;;;;;5097537;28;20070;-92
2022/11/24 00:06:24;;;;;;;10.10;5.10;;;6.60;99.90;;;;;;5096862;28;20488;-92
2022/11/24 00:08:51;;;;;;;12.43;5.07;;;6.60;99.90;;;;;;5096701;28;20039;-92
2022/11/24 00:11:26;;;;;;;12.70;5.65;;;6.60;99.90;;;;;;5080692;28;20105;-93
2022/11/24 00:13:53;;;;;;;;;;;6.60;99.90;;;;;;5097663;28;20044;-92
2022/11/24 00:16:23;;;;;;;11.77;4.90;;;7.00;99.90;;;;;;5097066;28;20395;-92
2022/11/24 00:18:52;;;;;;;9.43;4.70;;;6.70;99.90;;;;;;5097497;28;20039;-92
2022/11/24 00:21:19;;;;;;;13.02;5.43;;;6.70;99.90;;;;;;5097743;28;20047;-91
2022/11/24 00:23:47;;;;;;;14.25;5.20;;;6.70;99.90;;;;;;5097582;28;20044;-93
2022/11/24 00:26:19;;;;;;;11.15;4.85;;;6.70;99.90;;;;;;5080142;28;20036;-91
2022/11/24 00:28:47;;;;;;;13.30;5.28;;;6.70;99.90;;;;;;5097037;28;20119;-92
2022/11/24 00:31:20;;;;;;;10.85;5.22;;;6.70;99.90;;;;;;5080432;28;20070;-91
2022/11/24 00:33:49;;;;;;;12.88;5.00;;;6.90;99.90;;;;;;5097027;28;20385;-90
2022/11/24 00:36:17;;;;;;;13.63;5.35;;;6.60;99.90;;;;;;5080036;28;20373;-92
2022/11/24 00:38:44;;;;;;;14.20;5.20;;;6.80;99.90;;;;;;5096202;28;20047;-92
2022/11/24 00:41:11;;;;;;;17.55;5.55;;;6.60;99.90;;;;;;5096225;28;20048;-86
2022/11/24 00:43:38;;;;;;;15.63;5.10;;;6.60;99.90;;;;;;5079994;28;20396;-92
2022/11/24 00:46:05;;;;;;;14.57;4.82;;;6.50;99.90;;;;;;5096341;28;20044;-91
2022/11/24 00:48:32;;;;;;;10.35;5.18;;;6.50;99.90;;;;;;5079594;28;20385;-92
2022/11/24 00:51:07;;;;;;;12.43;4.85;;;6.50;99.90;;;;;;5095532;28;20040;-92
2022/11/24 00:53:34;;;;;;;12.68;4.80;;;6.40;99.90;;;;;;5096491;28;20131;-92
2022/11/24 00:56:04;;;;;;;18.13;5.20;;;6.40;99.90;;;;;;5096273;28;20522;-93
2022/11/24 00:58:32;;;;;;;11.40;4.35;;;6.40;99.90;;;;;;5079939;28;20565;-92
2022/11/24 01:01:08;;;;;;;19.30;4.97;;;6.40;99.90;;;;;;5096594;28;20396;-90
2022/11/24 01:03:34;;;;;;;9.88;4.43;;;6.30;99.90;;;;;;5075959;28;20040;-92
2022/11/24 01:06:06;;;;;;;13.63;4.20;;;6.40;99.90;;;;;;5059487;28;20045;-91
2022/11/24 01:08:34;;;;;;;18.52;4.43;;;6.30;99.90;;;;;;5075907;28;20098;-93
2022/11/24 01:11:10;;;;;;;16.80;4.20;;;6.50;99.90;;;;;;5092472;28;20044;-92
2022/11/24 01:13:37;;;;;;;;;;;6.40;99.90;;;;;;5110810;28;20062;-92
2022/11/24 01:16:04;;;;;;;10.18;3.90;;;6.30;99.90;;;;;;5112905;28;19919;-91
2022/11/24 01:18:31;;;;;;;10.43;3.75;;;6.30;99.90;;;;;;5079026;28;20040;-92
2022/11/24 01:20:57;;;;;;;12.90;4.03;;;6.30;99.90;;;;;;5062919;28;20043;-92
2022/11/24 01:23:24;;;;;;;14.85;4.22;;;6.20;99.90;;;;;;5095230;28;20127;-92
2022/11/24 01:25:51;;;;;;;16.08;4.10;;;6.20;99.90;;;;;;5095407;28;20036;-92
2022/11/24 01:28:17;;;;;;;10.00;3.53;;;6.30;99.90;;;;;;5096142;28;20040;-92
2022/11/24 01:30:45;;;;;;;12.32;3.72;;;6.20;99.90;;;;;;5078873;28;20043;-92
2022/11/24 01:33:12;;;;;;;9.40;4.00;;;6.30;99.90;;;;;;5095486;28;20116;-91
2022/11/24 01:35:39;;;;;;;11.23;3.53;;;6.20;99.90;;;;;;5079139;28;20115;-93
2022/11/24 01:38:06;;;;;;;13.40;3.70;;;6.20;99.90;;;;;;5079034;28;20126;-92
2022/11/24 01:40:32;;;;;;;11.25;3.83;;;6.20;99.90;;;;;;5078562;28;20043;-92
2022/11/24 01:42:59;;;;;;;13.82;3.40;;;6.50;99.90;;;;;;5078931;28;20051;-92
2022/11/24 01:45:39;;;;;;;11.82;3.45;;;6.60;99.90;;;;;;5062203;28;20057;-91
2022/11/24 01:48:18;;;;;;;15.75;3.35;;;6.10;99.90;;;;;;5079285;28;20123;-91
2022/11/24 01:50:50;;;;;;;11.93;3.55;;;6.10;99.90;;;;;;5095082;28;20093;-92
2022/11/24 01:53:17;;;;;;;11.40;3.25;;;6.10;99.90;;;;;;5095464;28;20114;-91
2022/11/24 01:55:44;;;;;;;14.35;3.55;;;6.10;99.90;;;;;;5078642;28;20524;-92
2022/11/24 01:58:21;;;;;;;10.35;3.47;;;6.10;99.90;;;;;;5079262;28;20066;-90
2022/11/24 02:00:49;;;;;;;7.45;2.38;;;6.10;99.90;;;;;;5111901;28;20040;-92
2022/11/24 02:03:19;;;;;;;14.93;3.25;;;6.00;99.90;;;;;;5062477;28;20040;-92
2022/11/24 02:06:09;;;;;;;8.30;2.63;;;6.00;99.90;;;;;;5094953;28;20039;-90
2022/11/24 02:09:06;;;;;;;11.90;3.20;;;6.00;99.90;;;;;;5094931;28;20448;-91
2022/11/24 02:11:36;;;;;;;12.70;3.28;;;6.00;99.90;;;;;;5063985;28;20045;-93
2022/11/24 02:14:04;;;;;;;16.88;3.25;;;5.90;99.90;;;;;;5075670;28;20040;-92
2022/11/24 02:16:34;;;;;;;10.18;2.92;;;6.00;99.90;;;;;;5094759;28;20131;-92
2022/11/24 02:19:04;;;;;;;13.73;3.25;;;6.20;99.90;;;;;;5095548;28;20376;-92
2022/11/24 02:21:31;;;;;;;10.25;3.28;;;6.00;99.90;;;;;;5094592;28;20062;-91
2022/11/24 02:24:05;;;;;;;15.18;3.10;;;6.40;99.90;;;;;;5094720;28;20035;-92
2022/11/24 02:26:44;;;;;;;13.20;3.13;;;6.00;99.90;;;;;;5094440;28;20068;-92
2022/11/24 02:29:13;;;;;;;15.75;3.13;;;5.90;99.90;;;;;;5094340;28;20282;-92
2022/11/24 02:31:50;;;;;;;14.00;3.08;;;6.00;99.90;;;;;;5094565;28;20075;-92
2022/11/24 02:34:17;;;;;;;12.40;2.85;;;5.90;99.90;;;;;;5111868;28;20102;-92
2022/11/24 02:36:44;;;;;;;9.55;2.85;;;6.90;99.90;;;;;;5078056;28;20071;-92
2022/11/24 02:39:12;;;;;;;21.48;3.58;;;6.40;99.90;;;;;;5078762;28;20051;-92
2022/11/24 02:41:45;;;;;;;9.93;2.97;;;6.40;99.90;;;;;;5078064;28;20101;-92
2022/11/24 02:44:14;;;;;;;15.80;3.00;;;6.00;99.90;;;;;;5111431;28;20104;-92
2022/11/24 02:46:41;;;;;;;11.85;2.30;;;6.10;99.90;;;;;;5094285;28;20071;-92
2022/11/24 02:49:07;;;;;;;10.45;3.08;;;6.30;99.90;;;;;;5077678;28;20043;-92
2022/11/24 02:51:34;;;;;;;11.63;3.22;;;5.90;99.90;;;;;;5061327;28;20036;-92
2022/11/24 02:54:01;;;;;;;16.90;3.42;;;5.90;99.90;;;;;;5094058;28;20177;-92
2022/11/24 02:56:28;;;;;;;13.88;3.75;;;5.90;99.90;;;;;;5077656;28;20040;-92
2022/11/24 02:58:54;;;;;;;12.80;2.92;;;5.90;99.90;;;;;;5094003;28;20488;-91
2022/11/24 03:01:21;;;;;;;11.48;2.60;;;6.20;99.90;;;;;;5094295;28;20044;-92
2022/11/24 03:03:48;;;;;;;15.18;3.03;;;6.10;99.90;;;;;;5077713;28;20160;-92
2022/11/24 03:06:14;;;;;;;15.65;4.20;;;6.30;99.90;;;;;;5077719;28;20044;-92
2022/11/24 03:08:41;;;;;;;15.00;3.00;;;5.80;99.90;;;;;;5077284;28;20032;-92
2022/11/24 03:11:08;;;;;;;16.52;2.63;;;5.80;99.90;;;;;;5060956;28;20126;-92
2022/11/24 03:13:34;;;;;;;12.95;2.35;;;5.80;99.90;;;;;;5060839;28;20043;-89
2022/11/24 03:16:01;;;;;;;9.88;2.72;;;5.90;99.90;;;;;;5065014;28;20052;-92
2022/11/24 03:18:27;;;;;;;7.68;2.17;;;6.10;99.90;;;;;;5064939;28;20047;-92
2022/11/24 03:20:58;;;;;;;10.93;2.85;;;5.80;99.90;;;;;;5065015;28;20096;-93
2022/11/24 03:23:25;;;;;;;13.93;2.85;;;6.00;99.90;;;;;;5115194;28;20043;-93
2022/11/24 03:25:52;;;;;;;12.50;2.88;;;5.80;99.90;;;;;;5064367;28;20036;-91
2022/11/24 03:28:18;;;;;;;12.55;2.65;;;5.80;99.90;;;;;;5097764;28;20044;-92
2022/11/24 03:30:48;;;;;;;11.25;2.33;;;6.00;99.90;;;;;;5064324;28;20032;-93
2022/11/24 03:33:15;;;;;;;12.10;2.33;;;5.80;99.90;;;;;;5114304;28;20101;-93
2022/11/24 03:35:42;;;;;;;16.70;3.08;;;5.90;99.90;;;;;;5064626;28;20091;-92
2022/11/24 03:38:08;;;;;;;9.98;2.03;;;6.00;99.90;;;;;;5065301;28;20443;-92
2022/11/24 03:40:35;;;;;;;16.88;2.80;;;6.20;99.90;;;;;;5081340;28;20043;-91
2022/11/24 03:43:02;;;;;;;14.57;2.85;;;6.10;99.90;;;;;;5065335;28;20462;-92
2022/11/24 03:45:28;;;;;;;8.30;2.20;;;6.10;99.90;;;;;;5064645;28;20047;-93
2022/11/24 03:47:55;;;;;;;14.35;2.50;;;6.20;99.90;;;;;;5097658;28;20119;-93
2022/11/24 03:50:22;;;;;;;13.63;2.67;;;6.50;99.90;;;;;;5081096;28;20075;-93
2022/11/24 03:52:49;;;;;;;25.10;3.05;;;6.20;99.90;;;;;;5080752;28;20066;-93
2022/11/24 03:55:15;;;;;;;9.73;2.38;;;6.30;99.90;;;;;;5064516;28;20048;-93
2022/11/24 03:57:42;;;;;;;15.07;2.63;;;6.30;99.90;;;;;;5064155;28;20047;-92
2022/11/24 04:00:10;;;;;;;11.45;2.25;;;6.40;99.90;;;;;;5080618;28;20123;-93
2022/11/24 04:02:37;;;;;;;12.00;2.42;;;6.40;99.90;;;;;;5097774;28;20044;-92
2022/11/24 04:05:05;;;;;;;16.13;2.00;;;6.40;99.90;;;;;;5080392;28;20100;-94
2022/11/24 04:07:31;;;;;;;11.77;2.50;;;6.40;99.90;;;;;;5081096;28;20097;-92
2022/11/24 04:09:58;;;;;;;17.10;2.58;;;6.60;99.90;;;;;;5080466;28;20036;-93
2022/11/24 04:12:42;;;;;;;16.08;2.67;;;7.20;99.90;;;;;;5080695;28;20032;-93
2022/11/24 04:15:15;;;;;;;8.27;2.13;;;6.60;99.90;;;;;;5068716;28;20082;-93
2022/11/24 04:17:42;;;;;;;15.70;3.03;;;6.60;99.90;;;;;;5097030;28;20106;-93
2022/11/24 04:20:10;;;;;;;10.60;2.65;;;6.80;99.90;;;;;;5096896;28;20080;-92
2022/11/24 04:22:37;;;;;;;14.82;2.15;;;6.60;99.90;;;;;;5081053;28;20046;-93
2022/11/24 04:25:05;;;;;;;13.25;2.45;;;6.60;99.90;;;;;;5096545;28;20058;-94
2022/11/24 04:27:33;;;;;;;12.52;2.60;;;6.60;99.90;;;;;;5079711;28;20492;-93
2022/11/24 04:29:59;;;;;;;12.45;2.80;;;6.60;99.90;;;;;;5080425;28;20425;-93
2022/11/24 04:32:26;;;;;;;12.57;2.63;;;6.50;99.90;;;;;;5080738;28;20056;-91
2022/11/24 04:34:53;;;;;;;12.57;2.05;;;6.50;99.90;;;;;;5080134;28;20048;-92
2022/11/24 04:37:20;;;;;;;7.22;1.73;;;6.70;99.90;;;;;;5080656;28;20200;-93
2022/11/24 04:39:46;;;;;;;17.48;2.03;;;6.40;99.90;;;;;;5080819;28;20050;-93
2022/11/24 04:42:13;;;;;;;12.05;2.10;;;6.70;99.90;;;;;;5063685;28;20040;-93
2022/11/24 04:44:40;;;;;;;11.75;2.00;;;6.40;99.90;;;;;;5096630;28;20114;-92
2022/11/24 04:47:11;;;;;;;4.93;1.30;;;6.70;99.90;;;;;;5063499;28;20043;-93
2022/11/24 04:49:38;;;;;;;12.02;1.80;;;6.30;99.90;;;;;;5080803;28;20778;-93
2022/11/24 04:52:04;;;;;;;13.15;2.05;;;6.20;99.90;;;;;;5062505;28;20035;-93
2022/11/24 04:54:31;;;;;;;13.60;2.20;;;6.20;99.90;;;;;;5063665;28;20036;-92
2022/11/24 04:56:58;;;;;;;14.93;3.08;;;6.20;99.90;;;;;;5063438;28;20040;-93
2022/11/24 04:59:24;;;;;;;12.75;2.00;;;6.20;99.90;;;;;;5096305;28;20472;-93
2022/11/24 07:51:47;;;;;;;7.07;1.58;;;5.60;99.90;;;;;;5093068;28;20175;-91
2022/11/24 07:54:14;;;;;;;12.70;2.10;;;5.60;99.90;;;;;;5035333;28;20052;-91
2022/11/24 07:56:40;;;;;;;8.68;1.83;;;5.60;99.90;;;;;;5053377;28;20499;-90
2022/11/24 07:59:07;;;;;;;10.65;1.92;;;5.60;99.90;;;;;;5021570;28;20044;-91
2022/11/24 08:01:34;;;;;;;7.57;1.75;;;5.60;99.90;;;;;;5026699;28;20723;-93
2022/11/24 08:04:01;;;;;;;9.82;1.95;;;5.60;99.90;;;;;;5037271;28;20453;-92
2022/11/24 08:06:28;;;;;;;5.03;1.90;;;5.70;99.90;;;;;;5039245;28;20488;-93
2022/11/24 08:08:56;;;;;;;13.70;1.90;;;5.70;99.90;;;;;;5065679;28;20032;-92
2022/11/24 08:11:23;;;;;;;8.60;1.98;;;5.60;99.90;;;;;;5059474;28;20492;-91
2022/11/24 08:13:50;;;;;;;9.35;2.08;;;5.70;99.90;;;;;;5026594;28;20116;-91
2022/11/24 08:16:18;;;;;;;7.32;1.92;;;5.60;99.90;;;;;;5040647;28;20052;-91
2022/11/24 08:18:53;;;;;;;8.48;2.70;;;5.70;99.90;;;;;;5056721;28;20045;-91
2022/11/24 08:21:22;;;;;;;16.83;3.03;;;5.70;99.90;;;;;;5057498;28;20454;-91
2022/11/24 08:23:49;;;;;;;11.95;2.17;;;5.70;99.90;;;;;;5077395;28;20685;-89
2022/11/24 08:26:18;;;;;;;7.40;1.60;;;5.80;99.90;;;;;;5059951;28;20048;-90
2022/11/24 08:28:46;;;;;;;11.07;2.78;;;6.10;99.90;;;;;;5093053;28;20041;-90
2022/11/24 08:31:17;;;;;;;18.38;2.67;;;6.50;99.90;;;;;;5044081;28;20042;-89
2022/11/24 08:33:45;;;;;;;11.32;2.15;;;6.30;99.90;;;;;;5042883;28;20033;-91
2022/11/24 08:36:17;;;;;;;11.63;2.30;;;6.00;99.90;;;;;;5056676;28;20095;-91
2022/11/24 08:38:44;;;;;;;11.02;2.40;;;5.90;99.90;;;;;;5056210;28;20045;-84
2022/11/24 08:41:14;;;;;;;14.65;2.00;;;6.00;99.90;;;;;;5061678;28;20090;-88
2022/11/24 08:43:41;;;;;;;13.07;2.58;;;6.00;99.90;;;;;;5056030;28;20109;-88
2022/11/24 08:46:17;;;;;;;17.13;2.80;;;6.00;99.90;;;;;;5039922;28;20124;-87
2022/11/24 08:48:49;;;;;;;15.60;2.53;;;6.10;99.90;;;;;;5051714;28;20637;-87
2022/11/24 08:51:19;;;;;;;11.75;2.15;;;6.10;99.90;;;;;;5067486;28;20052;-87
2022/11/24 08:53:46;;;;;;;8.02;2.00;;;6.20;99.90;;;;;;5085583;28;20041;-88
2022/11/24 08:56:13;;;;;;;8.00;1.98;;;6.10;99.90;;;;;;5059177;28;20491;-87
2022/11/24 09:06:08;;;;;;;10.15;2.20;;;6.30;99.90;;;;;;5127284;28;20082;-88
2022/11/24 09:08:36;;;;;;;10.52;1.95;;;6.40;99.90;;;;;;5095642;28;20040;-88
2022/11/24 09:11:08;;;;;;;11.75;2.75;;;6.40;99.90;;;;;;5095587;28;20044;-87
2022/11/24 09:13:36;;;;;;;12.57;2.75;;;6.50;99.90;;;;;;5111748;28;20066;-87
2022/11/24 09:16:05;;;;;;;12.52;3.45;;;6.50;99.90;;;;;;5078505;28;20044;-87
2022/11/24 09:18:32;;;;;;;12.50;2.60;;;6.60;99.90;;;;;;5079170;28;20047;-88
2022/11/24 09:21:18;;;;;;;14.90;2.50;;;6.60;99.90;;;;;;5078880;28;20090;-87
2022/11/24 09:23:49;;;;;;;13.20;2.87;;;6.60;99.90;;;;;;5095351;28;20058;-87
2022/11/24 09:26:22;;;;;;;14.73;2.50;;;6.70;99.90;;;;;;5095424;28;20371;-86
2022/11/24 09:28:53;;;;;;;9.43;2.55;;;6.70;99.90;;;;;;5095679;28;20040;-88
2022/11/24 09:31:22;;;;;;;13.85;2.58;;;6.80;99.90;;;;;;5112322;28;20083;-88
2022/11/24 09:33:49;;;;;;;13.88;2.70;;;6.90;99.90;;;;;;5078914;28;20040;-88
2022/11/24 09:36:15;;;;;;;10.55;2.15;;;6.90;99.90;;;;;;5089685;28;20067;-87
2022/11/24 09:38:42;;;;;;;13.02;2.63;;;6.90;99.90;;;;;;5061871;28;20040;-88
2022/11/24 09:41:24;;;;;;;14.98;2.95;;;7.00;99.90;;;;;;5078064;28;20044;-87
2022/11/24 09:44:26;;;;;;;9.95;2.58;;;7.00;99.90;;;;;;5094583;28;20047;-87
2022/11/24 09:47:07;;;;;;;9.25;2.40;;;7.10;99.90;;;;;;5011229;28;20490;-87
2022/11/24 09:49:41;;;;;;;11.40;2.35;;;7.20;99.90;;;;;;5086582;28;20048;-87
2022/11/24 09:52:16;;;;;;;10.10;2.47;;;7.30;99.90;;;;;;5111577;28;20047;-87
2022/11/24 09:54:54;;;;;;;10.98;2.20;;;7.30;99.90;;;;;;5100978;28;20385;-87
2022/11/24 09:57:25;;;;;;;6.97;2.20;;;7.40;99.90;;;;;;5074334;28;20385;-84
2022/11/24 09:59:54;;;;;;;9.85;2.30;;;7.50;99.90;;;;;;5074381;28;20052;-87
2022/11/24 10:02:20;;;;;;;13.35;2.83;;;7.50;99.90;;;;;;5058394;28;20093;-85
2022/11/24 10:04:47;;;;;;;11.43;2.40;;;7.60;99.90;;;;;;5041685;28;20049;-87
2022/11/24 10:07:29;;;;;;;13.68;2.53;;;7.70;99.90;;;;;;5074874;28;20040;-88
2022/11/24 10:10:02;;;;;;;7.13;1.80;;;7.60;99.90;;;;;;5075124;28;20036;-87
2022/11/24 10:12:46;;;;;;;5.25;1.90;;;7.70;99.90;;;;;;5105803;28;20047;-87
2022/11/24 10:15:24;;;;;;;6.57;2.03;;;7.70;99.90;;;;;;5094373;28;20048;-88
2022/11/24 10:18:10;;;;;;;8.07;2.00;;;7.70;99.90;;;;;;5094490;28;20092;-87
2022/11/24 10:20:51;;;;;;;10.95;2.28;;;7.80;99.90;;;;;;5094771;28;20044;-87
2022/11/24 10:23:27;;;;;;;6.72;1.70;;;7.80;99.90;;;;;;5094410;28;20122;-87
2022/11/24 10:25:57;;;;;;;7.22;1.88;;;7.80;99.90;;;;;;5094113;28;20093;-87
2022/11/24 10:28:48;;;;;;;11.95;2.50;;;8.00;99.90;;;;;;5077738;28;20043;-87
2022/11/24 10:31:39;;;;;;;5.43;1.70;;;7.90;99.90;;;;;;5086749;28;20451;-87
2022/11/24 10:34:22;;;;;;;7.85;2.00;;;7.90;99.90;;;;;;5094246;28;20036;-87
2022/11/24 10:36:51;;;;;;;8.85;2.20;;;7.90;99.90;;;;;;5094233;28;20040;-88
2022/11/24 10:39:27;;;;;;;9.45;1.58;;;8.00;99.90;;;;;;5094331;28;20035;-88
2022/11/24 10:42:04;;;;;;;5.20;1.80;;;8.00;99.90;;;;;;5094058;28;20076;-87
2022/11/24 10:44:31;;;;;;;5.00;2.33;;;8.10;99.90;;;;;;5093505;28;20036;-87
2022/11/24 10:46:58;;;;;;;6.22;1.80;;;8.10;99.90;;;;;;5060970;28;20113;-88
2022/11/24 10:49:29;;;;;;;7.05;2.25;;;8.10;99.90;;;;;;5060531;28;20092;-87
2022/11/24 10:52:12;;;;;;;7.88;1.85;;;8.20;99.90;;;;;;5093996;28;20085;-88
2022/11/24 10:54:59;;;;;;;7.70;2.05;;;8.20;99.90;;;;;;5093413;28;20127;-87
2022/11/24 10:57:28;;;;;;;8.27;2.15;;;8.20;99.90;;;;;;5077019;28;20044;-87
2022/11/24 10:59:55;;;;;;;8.50;1.88;;;8.30;99.90;;;;;;5110449;28;20040;-87
2022/11/24 11:02:29;;;;;;;8.10;1.85;;;8.30;99.90;;;;;;5076966;28;20091;-87
2022/11/24 11:04:56;;;;;;;4.60;1.35;;;8.40;99.90;;;;;;5093121;28;20117;-89
2022/11/24 11:07:25;;;;;;;6.65;1.58;;;8.40;99.90;;;;;;5093506;28;20072;-87
2022/11/24 11:10:19;;;;;;;6.30;1.55;;;8.50;99.90;;;;;;5092531;28;20035;-88
2022/11/24 11:12:46;;;;;;;4.15;1.30;;;8.50;99.90;;;;;;5093288;28;20036;-89
2022/11/24 11:15:30;;;;;;;3.92;1.50;;;8.60;99.90;;;;;;5076647;28;20506;-89
2022/11/24 11:17:59;;;;;;;6.30;1.67;;;8.60;99.90;;;;;;5093675;28;20099;-88
2022/11/24 11:20:32;;;;;;;6.43;1.58;;;8.60;99.90;;;;;;5094073;28;20050;-88
2022/11/24 11:23:14;;;;;;;2.60;1.20;;;8.60;99.90;;;;;;5093769;28;20536;-88
2022/11/24 11:25:42;;;;;;;3.85;1.17;;;8.70;99.90;;;;;;5093092;28;20040;-87
2022/11/24 11:28:24;;;;;;;4.78;1.60;;;8.70;99.90;;;;;;5089599;28;20032;-89
2022/11/24 11:31:18;;;;;;;4.65;1.33;;;8.70;99.90;;;;;;5101628;28;20032;-88
2022/11/24 11:33:59;;;;;;;6.47;1.35;;;8.90;99.90;;;;;;5112375;28;20114;-88
2022/11/24 11:36:27;;;;;;;4.75;1.40;;;8.80;99.90;;;;;;5095804;28;20089;-88
2022/11/24 11:38:53;;;;;;;6.45;1.73;;;8.90;99.90;;;;;;5080831;28;20039;-88
2022/11/24 11:41:32;;;;;;;3.50;1.33;;;8.90;99.90;;;;;;5063867;28;20483;-87
2022/11/24 11:44:09;;;;;;;3.05;1.27;;;9.00;99.90;;;;;;5096692;28;20075;-87
2022/11/24 11:46:36;;;;;;;3.60;1.42;;;9.00;99.90;;;;;;5113463;28;20044;-86
2022/11/24 11:49:03;;;;;;;8.30;1.58;;;9.10;99.90;;;;;;5085818;28;20538;-88
2022/11/24 11:51:59;;;;;;;10.65;1.80;;;9.00;99.90;;;;;;5063175;28;20507;-87
2022/11/24 11:54:35;;;;;;;;;;;9.00;99.90;;;;;;5094214;28;20484;-88
2022/11/24 11:57:28;;;;;;;5.30;1.50;;;9.00;99.90;;;;;;5079219;28;19924;-87
2022/11/24 12:00:18;;;;;;;4.15;1.42;;;9.10;99.90;;;;;;5096760;28;20041;-87
2022/11/24 12:03:20;;;;;;;5.00;1.60;;;9.00;99.90;;;;;;5096774;28;20044;-87
2022/11/24 12:05:46;;;;;;;5.28;1.42;;;9.00;99.90;;;;;;5096723;28;20051;-88
2022/11/24 12:08:36;;;;;;;7.72;1.60;;;9.00;99.90;;;;;;5097082;28;20032;-87
2022/11/24 12:11:25;;;;;;;5.13;1.60;;;8.90;99.90;;;;;;5100358;28;20492;-88
2022/11/24 12:14:25;;;;;;;8.45;1.67;;;9.00;99.90;;;;;;5113811;28;20476;-88
2022/11/24 12:16:54;;;;;;;6.90;1.52;;;9.00;99.90;;;;;;5096984;28;20069;-85
2022/11/24 12:19:48;;;;;;;3.85;1.60;;;8.90;99.90;;;;;;5097423;28;20036;-86
2022/11/24 12:22:36;;;;;;;5.40;1.60;;;9.00;99.90;;;;;;5097043;28;20051;-87
2022/11/24 12:25:21;;;;;;;8.05;2.05;;;9.00;99.90;;;;;;5090494;28;20500;-87
2022/11/24 12:28:03;;;;;;;7.47;1.98;;;8.90;99.90;;;;;;5085829;28;20036;-87
2022/11/24 12:30:42;;;;;;;5.38;1.95;;;8.90;99.90;;;;;;5091416;28;20054;-87
2022/11/24 12:33:36;;;;;;;10.98;1.58;;;9.00;99.90;;;;;;5091815;28;20464;-88
2022/11/24 12:36:14;;;;;;;4.47;1.67;;;9.00;99.90;;;;;;5090164;28;20048;-87
2022/11/24 12:38:57;;;;;;;9.50;1.80;;;9.10;99.90;;;;;;5093365;28;20040;-87
2022/11/24 12:41:53;;;;;;;11.10;2.03;;;9.10;99.90;;;;;;5079135;28;20051;-87
2022/11/24 12:44:38;;;;;;;4.57;1.35;;;9.00;99.90;;;;;;5104996;28;20044;-88
2022/11/24 12:47:13;;;;;;;5.32;1.38;;;9.10;99.90;;;;;;5089473;28;20040;-87
2022/11/24 12:49:59;;;;;;;;;;;9.10;99.90;;;;;;5096374;28;20139;-87
2022/11/24 12:52:31;;;;;;;5.35;1.88;;;9.10;99.90;;;;;;5105008;28;19947;-88
2022/11/24 12:54:59;;;;;;;4.80;1.60;;;9.20;99.90;;;;;;5095954;28;20093;-88
2022/11/24 12:57:29;;;;;;;6.72;1.75;;;9.20;99.90;;;;;;5079128;28;20082;-88
2022/11/24 13:00:17;;;;;;;6.65;1.92;;;9.20;99.90;;;;;;5095537;28;20093;-87
2022/11/24 13:02:50;;;;;;;4.47;1.77;;;9.20;99.90;;;;;;5095864;28;20040;-87
2022/11/24 13:05:32;;;;;;;6.97;1.90;;;9.20;99.90;;;;;;5096125;28;20078;-88
2022/11/24 13:08:02;;;;;;;6.45;2.10;;;9.30;99.90;;;;;;5112066;28;20127;-87
2022/11/24 13:10:37;;;;;;;6.00;2.00;;;9.30;99.90;;;;;;5095780;28;20031;-88
2022/11/24 13:13:11;;;;;;;12.07;3.03;;;9.30;99.90;;;;;;5095406;28;20051;-87
2022/11/24 13:15:53;;;;;;;6.20;1.50;;;9.30;99.90;;;;;;5070791;28;20102;-87
2022/11/24 13:18:46;;;;;;;6.07;1.40;;;9.30;99.90;;;;;;5092131;28;20052;-88
2022/11/24 13:21:49;;;;;;;7.75;1.50;;;9.30;99.90;;;;;;5100404;28;20097;-88
2022/11/24 13:24:15;;;;;;;6.82;2.20;;;9.30;99.90;;;;;;5095349;28;20126;-88
2022/11/24 13:26:42;;;;;;;8.93;3.10;;;9.40;99.90;;;;;;5095570;28;20127;-88
2022/11/24 13:29:29;;;;;;;11.38;2.65;;;9.40;99.90;;;;;;5104301;28;20037;-87
2022/11/24 13:32:05;;;;;;;7.38;1.98;;;9.40;99.90;;;;;;5075161;28;20075;-88
2022/11/24 13:34:38;;;;;;;7.35;1.92;;;9.40;99.90;;;;;;5074965;28;20051;-87
2022/11/24 13:37:26;;;;;;;8.68;2.05;;;9.40;99.90;;;;;;5075037;28;20050;-88
2022/11/24 13:39:55;;;;;;;6.95;1.60;;;9.40;99.90;;;;;;5075037;28;20052;-84
2022/11/24 13:42:26;;;;;;;9.43;1.83;;;9.40;99.90;;;;;;5091830;28;20451;-87
2022/11/24 13:44:58;;;;;;;15.73;2.38;;;9.40;99.90;;;;;;5074761;28;20041;-86
2022/11/24 13:47:33;;;;;;;12.65;2.25;;;9.30;99.90;;;;;;5074667;28;20550;-88
2022/11/24 13:50:08;;;;;;;8.00;2.10;;;9.30;99.90;;;;;;5080659;28;20508;-88
2022/11/24 13:52:38;;;;;;;6.60;2.20;;;9.30;99.90;;;;;;5096140;28;20118;-88
2022/11/24 13:55:11;;;;;;;5.88;1.67;;;9.30;99.90;;;;;;5094355;28;20061;-88
2022/11/24 13:57:43;;;;;;;11.45;2.65;;;9.30;99.90;;;;;;5095190;28;20492;-87
2022/11/24 14:00:23;;;;;;;7.35;2.20;;;9.20;99.90;;;;;;5110150;28;20075;-87
2022/11/24 14:02:52;;;;;;;5.20;1.80;;;9.30;99.90;;;;;;5095367;28;20515;-87
2022/11/24 14:05:28;;;;;;;8.35;2.33;;;9.20;99.90;;;;;;5095117;28;20076;-88
2022/11/24 14:07:55;;;;;;;6.90;2.83;;;9.20;99.90;;;;;;5095830;28;20036;-88
2022/11/24 14:10:29;;;;;;;8.93;3.10;;;9.10;99.90;;;;;;5095016;28;20035;-88
2022/11/24 14:13:21;;;;;;;6.20;2.70;;;9.10;99.90;;;;;;5112184;28;20042;-88
2022/11/24 14:16:20;;;;;;;9.73;3.83;;;9.10;99.90;;;;;;5079705;28;20134;-87
2022/11/24 14:18:48;;;;;;;10.50;3.33;;;9.10;99.90;;;;;;5094778;28;20047;-87
2022/11/24 14:21:29;;;;;;;7.32;2.97;;;9.00;99.90;;;;;;5077291;28;20061;-87
2022/11/24 14:24:09;;;;;;;11.27;3.53;;;8.90;99.90;;;;;;5094165;28;20032;-88
2022/11/24 14:26:38;;;;;;;8.45;3.05;;;8.90;99.90;;;;;;5094885;28;20051;-87
2022/11/24 14:29:22;;;;;;;9.07;2.80;;;8.90;99.90;;;;;;5093969;28;20044;-89
2022/11/24 14:32:02;;;;;;;8.43;3.67;;;8.80;99.90;;;;;;5111013;28;20040;-88
2022/11/24 14:34:30;;;;;;;9.45;3.67;;;8.80;99.90;;;;;;5093910;28;20051;-88
2022/11/24 14:36:59;;;;;;;7.78;2.92;;;8.80;99.90;;;;;;5110928;28;20040;-87
2022/11/24 14:39:26;;;;;;;6.53;2.97;;;9.00;99.90;;;;;;5110419;28;20404;-88
2022/11/24 14:42:14;;;;;;;5.85;2.08;;;8.90;99.90;;;;;;5076449;28;20422;-85
2022/11/24 14:44:49;;;;;;;9.98;2.80;;;8.70;99.90;;;;;;5093586;28;20488;-87
2022/11/24 14:47:33;;;;;;;4.32;2.22;;;8.70;99.90;;;;;;5093620;28;20036;-87
2022/11/24 14:50:11;;;;;;;5.63;2.33;;;8.60;99.90;;;;;;5093449;28;20093;-87
2022/11/24 14:52:57;;;;;;;8.30;2.60;;;8.60;99.90;;;;;;5093612;28;20043;-87
2022/11/24 14:55:31;;;;;;;;;;;8.60;99.90;;;;;;5077451;28;20051;-86
2022/11/24 14:57:58;;;;;;;7.00;2.60;;;8.50;99.90;;;;;;5093371;28;19946;-87
2022/11/24 15:00:27;;;;;;;10.68;2.95;;;8.50;99.90;;;;;;5068103;28;20043;-87
2022/11/24 15:03:00;;;;;;;8.35;2.80;;;8.50;99.90;;;;;;5094392;28;20039;-87
2022/11/24 15:05:57;;;;;;;11.23;2.75;;;8.40;99.90;;;;;;5093783;28;20038;-88
2022/11/24 15:08:26;;;;;;;9.02;2.72;;;8.30;99.90;;;;;;5076774;28;20039;-88
2022/11/24 15:11:06;;;;;;;8.98;2.65;;;8.30;99.90;;;;;;5109295;28;20066;-87
2022/11/24 15:13:36;;;;;;;5.88;2.65;;;8.20;99.90;;;;;;5076964;28;20036;-86
2022/11/24 15:16:18;;;;;;;9.88;2.75;;;8.10;99.90;;;;;;5093392;28;20083;-87
2022/11/24 15:18:48;;;;;;;6.60;2.63;;;8.10;99.90;;;;;;5093780;28;20090;-86
2022/11/24 15:21:14;;;;;;;7.30;2.83;;;8.10;99.90;;;;;;5092918;28;20040;-87
2022/11/24 15:23:41;;;;;;;8.73;2.55;;;8.00;99.90;;;;;;5059720;28;20047;-86
2022/11/24 15:26:11;;;;;;;9.38;2.50;;;7.90;99.90;;;;;;5092665;28;20131;-86
2022/11/24 15:28:38;;;;;;;11.32;2.92;;;7.90;99.90;;;;;;5093118;28;20032;-87
2022/11/24 15:31:09;;;;;;;9.18;2.90;;;7.80;99.90;;;;;;5059831;28;20040;-87
2022/11/24 15:33:37;;;;;;;10.63;2.72;;;7.70;99.90;;;;;;5092931;28;20028;-87
2022/11/24 15:36:04;;;;;;;7.22;3.08;;;7.60;99.90;;;;;;5059994;28;20097;-87
2022/11/24 15:38:31;;;;;;;8.45;2.78;;;7.60;99.90;;;;;;5076782;28;20036;-87
2022/11/24 15:40:59;;;;;;;11.30;2.80;;;8.00;99.90;;;;;;5092860;28;20484;-87
2022/11/24 15:43:33;;;;;;;8.63;2.72;;;7.40;99.90;;;;;;5094755;28;20114;-87
2022/11/24 15:46:07;;;;;;;11.70;2.88;;;7.50;99.90;;;;;;5086786;28;20044;-87
2022/11/24 15:48:34;;;;;;;9.98;2.95;;;7.40;99.90;;;;;;5077427;28;20071;-87
2022/11/24 15:51:04;;;;;;;8.85;3.35;;;7.40;99.90;;;;;;5106942;28;20040;-87
2022/11/24 15:53:36;;;;;;;11.13;3.60;;;7.40;99.90;;;;;;5092895;28;20043;-87
2022/11/24 15:56:08;;;;;;;10.40;3.55;;;7.30;99.90;;;;;;5092795;28;20044;-87
2022/11/24 15:58:35;;;;;;;10.13;3.08;;;7.30;99.90;;;;;;5093328;28;20040;-87
2022/11/24 16:01:02;;;;;;;9.18;2.83;;;7.30;99.90;;;;;;5093071;28;20079;-87
2022/11/24 16:03:28;;;;;;;14.75;3.08;;;7.20;99.90;;;;;;5092802;28;20520;-87
2022/11/24 16:05:56;;;;;;;10.43;3.22;;;7.20;99.90;;;;;;5060173;28;20044;-88
2022/11/24 16:08:23;;;;;;;14.98;3.55;;;7.20;99.90;;;;;;5093247;28;20035;-92
2022/11/24 16:10:53;;;;;;;10.20;3.08;;;7.10;99.90;;;;;;5092963;28;20131;-87
2022/11/24 16:13:19;;;;;;;11.43;3.63;;;7.30;99.90;;;;;;5063478;28;20517;-88
2022/11/24 16:15:46;;;;;;;8.65;3.10;;;7.30;99.90;;;;;;5077381;28;20043;-86
2022/11/24 16:18:13;;;;;;;8.73;3.45;;;7.00;99.90;;;;;;5060249;28;20040;-89